sensor_id;sensor_type;location;lat;lon;timestamp;P1;durP1;ratioP1;P2;durP2;ratioP2
38909;SDS011;24676;51.360;12.354;2023-05-10T00:02:05;2.13;;;1.75;;
38909;SDS011;24676;51.360;12.354;2023-05-10T00:04:49;2.67;;;2.15;;
38909;SDS011;24676;51.360;12.354;2023-05-10T00:07:34;1.88;;;1.67;;
38909;SDS011;24676;51.360;12.354;2023-05-10T00:10:18;3.45;;;2.30;;
38909;SDS011;24676;51.360;12.354;2023-05-10T00:13:03;2.35;;;1.40;;
38909;SDS011;24676;51.360;12.354;2023-05-10T00:15:48;2.28;;;1.27;;
38909;SDS011;24676;51.360;12.354;2023-05-10T00:18:32;5.07;;;2.03;;
38909;SDS011;24676;51.360;12.354;2023-05-10T00:21:16;1.52;;;1.42;;
38909;SDS011;24676;51.360;12.354;2023-05-10T00:24:00;1.92;;;1.63;;
38909;SDS011;24676;51.360;12.354;2023-05-10T00:26:44;3.42;;;1.50;;
38909;SDS011;24676;51.360;12.354;2023-05-10T00:29:28;1.80;;;1.52;;
38909;SDS011;24676;51.360;12.354;2023-05-10T00:32:13;2.22;;;1.95;;
38909;SDS011;24676;51.360;12.354;2023-05-10T00:34:57;3.05;;;1.85;;
38909;SDS011;24676;51.360;12.354;2023-05-10T00:37:42;2.35;;;1.65;;
38909;SDS011;24676;51.360;12.354;2023-05-10T00:40:26;1.77;;;1.35;;
38909;SDS011;24676;51.360;12.354;2023-05-10T00:43:11;2.25;;;2.05;;
38909;SDS011;24676;51.360;12.354;2023-05-10T00:45:56;2.58;;;2.00;;
38909;SDS011;24676;51.360;12.354;2023-05-10T00:48:40;6.25;;;2.28;;
38909;SDS011;24676;51.360;12.354;2023-05-10T00:51:25;3.20;;;1.58;;
38909;SDS011;24676;51.360;12.354;2023-05-10T00:54:13;3.20;;;1.90;;
38909;SDS011;24676;51.360;12.354;2023-05-10T00:56:58;1.90;;;1.77;;
38909;SDS011;24676;51.360;12.354;2023-05-10T00:59:43;4.30;;;1.70;;
38909;SDS011;24676;51.360;12.354;2023-05-10T01:02:27;5.40;;;1.88;;
38909;SDS011;24676;51.360;12.354;2023-05-10T01:05:12;5.57;;;2.17;;
38909;SDS011;24676;51.360;12.354;2023-05-10T01:07:57;3.33;;;2.20;;
38909;SDS011;24676;51.360;12.354;2023-05-10T01:10:41;1.75;;;1.25;;
38909;SDS011;24676;51.360;12.354;2023-05-10T01:16:16;4.50;;;2.35;;
38909;SDS011;24676;51.360;12.354;2023-05-10T01:19:00;2.55;;;1.92;;
38909;SDS011;24676;51.360;12.354;2023-05-10T01:39:44;2.58;;;1.77;;
38909;SDS011;24676;51.360;12.354;2023-05-10T01:42:38;1.92;;;1.73;;
38909;SDS011;24676;51.360;12.354;2023-05-10T01:45:29;3.90;;;2.47;;
38909;SDS011;24676;51.360;12.354;2023-05-10T01:48:17;1.90;;;1.73;;
38909;SDS011;24676;51.360;12.354;2023-05-10T01:51:03;2.08;;;1.85;;
38909;SDS011;24676;51.360;12.354;2023-05-10T01:53:48;2.47;;;2.20;;
38909;SDS011;24676;51.360;12.354;2023-05-10T01:56:35;13.43;;;2.63;;
38909;SDS011;24676;51.360;12.354;2023-05-10T01:59:21;2.90;;;1.92;;
38909;SDS011;24676;51.360;12.354;2023-05-10T02:02:08;2.92;;;1.50;;
38909;SDS011;24676;51.360;12.354;2023-05-10T02:04:55;2.95;;;2.45;;
38909;SDS011;24676;51.360;12.354;2023-05-10T02:07:41;4.97;;;2.08;;
38909;SDS011;24676;51.360;12.354;2023-05-10T02:10:27;1.75;;;1.25;;
38909;SDS011;24676;51.360;12.354;2023-05-10T02:13:12;1.83;;;1.70;;
38909;SDS011;24676;51.360;12.354;2023-05-10T02:15:56;2.28;;;1.50;;
38909;SDS011;24676;51.360;12.354;2023-05-10T02:18:42;2.58;;;1.58;;
38909;SDS011;24676;51.360;12.354;2023-05-10T02:21:28;3.05;;;1.85;;
38909;SDS011;24676;51.360;12.354;2023-05-10T02:24:14;2.78;;;1.60;;
38909;SDS011;24676;51.360;12.354;2023-05-10T02:26:59;2.00;;;1.90;;
38909;SDS011;24676;51.360;12.354;2023-05-10T02:29:45;3.95;;;2.42;;
38909;SDS011;24676;51.360;12.354;2023-05-10T02:32:30;6.03;;;2.53;;
38909;SDS011;24676;51.360;12.354;2023-05-10T02:35:15;3.28;;;1.75;;
38909;SDS011;24676;51.360;12.354;2023-05-10T02:38:00;4.07;;;2.47;;
38909;SDS011;24676;51.360;12.354;2023-05-10T02:40:45;1.92;;;1.77;;
38909;SDS011;24676;51.360;12.354;2023-05-10T02:43:32;3.28;;;2.10;;
38909;SDS011;24676;51.360;12.354;2023-05-10T02:46:17;2.20;;;1.83;;
38909;SDS011;24676;51.360;12.354;2023-05-10T02:49:02;5.47;;;1.23;;
38909;SDS011;24676;51.360;12.354;2023-05-10T02:51:49;3.63;;;2.17;;
38909;SDS011;24676;51.360;12.354;2023-05-10T02:54:50;1.42;;;1.33;;
38909;SDS011;24676;51.360;12.354;2023-05-10T02:57:41;2.35;;;2.15;;
38909;SDS011;24676;51.360;12.354;2023-05-10T03:00:28;2.60;;;1.60;;
38909;SDS011;24676;51.360;12.354;2023-05-10T03:03:13;2.25;;;1.42;;
38909;SDS011;24676;51.360;12.354;2023-05-10T03:05:57;4.25;;;2.10;;
38909;SDS011;24676;51.360;12.354;2023-05-10T03:08:42;2.40;;;1.30;;
38909;SDS011;24676;51.360;12.354;2023-05-10T03:11:39;3.92;;;1.35;;
38909;SDS011;24676;51.360;12.354;2023-05-10T03:17:25;3.08;;;1.58;;
38909;SDS011;24676;51.360;12.354;2023-05-10T03:20:31;12.88;;;3.13;;
38909;SDS011;24676;51.360;12.354;2023-05-10T03:23:35;3.03;;;1.45;;
38909;SDS011;24676;51.360;12.354;2023-05-10T03:26:24;4.40;;;2.28;;
38909;SDS011;24676;51.360;12.354;2023-05-10T03:29:11;2.28;;;1.45;;
38909;SDS011;24676;51.360;12.354;2023-05-10T03:31:58;1.73;;;1.63;;
38909;SDS011;24676;51.360;12.354;2023-05-10T03:34:42;2.95;;;2.08;;
38909;SDS011;24676;51.360;12.354;2023-05-10T03:37:27;2.15;;;1.42;;
38909;SDS011;24676;51.360;12.354;2023-05-10T03:40:11;2.20;;;1.85;;
38909;SDS011;24676;51.360;12.354;2023-05-10T03:42:55;3.13;;;2.03;;
38909;SDS011;24676;51.360;12.354;2023-05-10T03:45:39;3.60;;;1.42;;
38909;SDS011;24676;51.360;12.354;2023-05-10T03:48:23;2.75;;;1.60;;
38909;SDS011;24676;51.360;12.354;2023-05-10T03:51:08;3.13;;;2.10;;
38909;SDS011;24676;51.360;12.354;2023-05-10T03:53:52;3.42;;;1.90;;
38909;SDS011;24676;51.360;12.354;2023-05-10T03:56:37;1.73;;;1.38;;
38909;SDS011;24676;51.360;12.354;2023-05-10T03:59:21;3.42;;;2.38;;
38909;SDS011;24676;51.360;12.354;2023-05-10T04:02:05;4.18;;;1.77;;
38909;SDS011;24676;51.360;12.354;2023-05-10T04:04:50;3.03;;;2.22;;
38909;SDS011;24676;51.360;12.354;2023-05-10T04:07:34;3.20;;;1.25;;
38909;SDS011;24676;51.360;12.354;2023-05-10T04:10:18;3.55;;;2.00;;
38909;SDS011;24676;51.360;12.354;2023-05-10T04:13:02;4.43;;;2.40;;
38909;SDS011;24676;51.360;12.354;2023-05-10T04:15:47;4.43;;;1.45;;
38909;SDS011;24676;51.360;12.354;2023-05-10T04:18:31;1.40;;;1.20;;
38909;SDS011;24676;51.360;12.354;2023-05-10T04:21:15;3.60;;;1.60;;
38909;SDS011;24676;51.360;12.354;2023-05-10T04:24:00;2.15;;;1.95;;
38909;SDS011;24676;51.360;12.354;2023-05-10T04:26:44;1.60;;;1.50;;
38909;SDS011;24676;51.360;12.354;2023-05-10T04:29:28;5.18;;;2.67;;
38909;SDS011;24676;51.360;12.354;2023-05-10T04:32:13;1.60;;;1.45;;
38909;SDS011;24676;51.360;12.354;2023-05-10T04:34:59;2.25;;;1.67;;
38909;SDS011;24676;51.360;12.354;2023-05-10T04:37:46;2.28;;;1.83;;
38909;SDS011;24676;51.360;12.354;2023-05-10T04:40:30;1.65;;;1.52;;
38909;SDS011;24676;51.360;12.354;2023-05-10T04:43:14;2.50;;;1.85;;
38909;SDS011;24676;51.360;12.354;2023-05-10T04:45:58;2.38;;;1.73;;
38909;SDS011;24676;51.360;12.354;2023-05-10T04:48:43;2.17;;;1.50;;
38909;SDS011;24676;51.360;12.354;2023-05-10T04:51:27;1.60;;;1.50;;
38909;SDS011;24676;51.360;12.354;2023-05-10T04:54:11;1.65;;;1.42;;
38909;SDS011;24676;51.360;12.354;2023-05-10T04:56:56;1.75;;;1.35;;
38909;SDS011;24676;51.360;12.354;2023-05-10T04:59:40;2.97;;;1.65;;
38909;SDS011;24676;51.360;12.354;2023-05-10T05:02:24;2.97;;;1.58;;
38909;SDS011;24676;51.360;12.354;2023-05-10T05:05:09;4.05;;;1.98;;
38909;SDS011;24676;51.360;12.354;2023-05-10T05:07:53;2.55;;;1.52;;
38909;SDS011;24676;51.360;12.354;2023-05-10T05:10:37;5.70;;;1.45;;
38909;SDS011;24676;51.360;12.354;2023-05-10T05:13:21;2.70;;;1.60;;
38909;SDS011;24676;51.360;12.354;2023-05-10T05:16:06;2.65;;;1.30;;
38909;SDS011;24676;51.360;12.354;2023-05-10T05:18:50;1.50;;;1.40;;
38909;SDS011;24676;51.360;12.354;2023-05-10T05:21:34;5.47;;;1.63;;
38909;SDS011;24676;51.360;12.354;2023-05-10T05:24:19;1.85;;;1.10;;
38909;SDS011;24676;51.360;12.354;2023-05-10T05:27:03;8.23;;;1.85;;
38909;SDS011;24676;51.360;12.354;2023-05-10T05:29:48;2.05;;;1.63;;
38909;SDS011;24676;51.360;12.354;2023-05-10T05:32:32;2.40;;;1.35;;
38909;SDS011;24676;51.360;12.354;2023-05-10T05:35:16;2.35;;;1.38;;
38909;SDS011;24676;51.360;12.354;2023-05-10T05:38:00;4.38;;;1.40;;
38909;SDS011;24676;51.360;12.354;2023-05-10T05:40:44;1.38;;;1.27;;
38909;SDS011;24676;51.360;12.354;2023-05-10T05:43:29;3.67;;;1.23;;
38909;SDS011;24676;51.360;12.354;2023-05-10T05:46:13;3.50;;;1.42;;
38909;SDS011;24676;51.360;12.354;2023-05-10T05:48:58;2.70;;;1.25;;
38909;SDS011;24676;51.360;12.354;2023-05-10T05:51:42;3.63;;;1.77;;
38909;SDS011;24676;51.360;12.354;2023-05-10T05:54:26;3.42;;;1.33;;
38909;SDS011;24676;51.360;12.354;2023-05-10T05:57:11;1.42;;;1.33;;
38909;SDS011;24676;51.360;12.354;2023-05-10T05:59:55;1.58;;;1.20;;
38909;SDS011;24676;51.360;12.354;2023-05-10T06:02:40;3.22;;;1.98;;
38909;SDS011;24676;51.360;12.354;2023-05-10T06:05:24;2.10;;;1.88;;
38909;SDS011;24676;51.360;12.354;2023-05-10T06:08:08;2.22;;;1.35;;
38909;SDS011;24676;51.360;12.354;2023-05-10T06:10:53;1.88;;;1.58;;
38909;SDS011;24676;51.360;12.354;2023-05-10T06:13:37;2.10;;;1.90;;
38909;SDS011;24676;51.360;12.354;2023-05-10T06:16:21;5.53;;;1.67;;
38909;SDS011;24676;51.360;12.354;2023-05-10T06:19:05;2.90;;;1.67;;
38909;SDS011;24676;51.360;12.354;2023-05-10T06:21:49;3.35;;;2.83;;
38909;SDS011;24676;51.360;12.354;2023-05-10T06:24:34;1.60;;;1.48;;
38909;SDS011;24676;51.360;12.354;2023-05-10T06:27:18;4.75;;;1.65;;
38909;SDS011;24676;51.360;12.354;2023-05-10T06:30:02;1.85;;;1.50;;
38909;SDS011;24676;51.360;12.354;2023-05-10T06:32:48;1.95;;;1.20;;
38909;SDS011;24676;51.360;12.354;2023-05-10T06:35:32;5.80;;;1.35;;
38909;SDS011;24676;51.360;12.354;2023-05-10T06:38:17;2.17;;;1.83;;
38909;SDS011;24676;51.360;12.354;2023-05-10T06:41:01;2.95;;;2.00;;
38909;SDS011;24676;51.360;12.354;2023-05-10T06:43:45;2.80;;;2.08;;
38909;SDS011;24676;51.360;12.354;2023-05-10T06:46:29;2.35;;;1.58;;
38909;SDS011;24676;51.360;12.354;2023-05-10T06:49:14;4.95;;;1.38;;
38909;SDS011;24676;51.360;12.354;2023-05-10T06:51:58;3.85;;;2.28;;
38909;SDS011;24676;51.360;12.354;2023-05-10T06:54:42;1.58;;;1.27;;
38909;SDS011;24676;51.360;12.354;2023-05-10T06:57:27;2.25;;;1.70;;
38909;SDS011;24676;51.360;12.354;2023-05-10T07:00:11;1.40;;;1.15;;
38909;SDS011;24676;51.360;12.354;2023-05-10T07:02:56;2.80;;;1.55;;
38909;SDS011;24676;51.360;12.354;2023-05-10T07:05:40;1.60;;;1.52;;
38909;SDS011;24676;51.360;12.354;2023-05-10T07:08:25;1.15;;;1.00;;
38909;SDS011;24676;51.360;12.354;2023-05-10T07:11:09;3.45;;;1.85;;
38909;SDS011;24676;51.360;12.354;2023-05-10T07:13:56;1.20;;;1.20;;
38909;SDS011;24676;51.360;12.354;2023-05-10T07:16:40;3.70;;;1.10;;
38909;SDS011;24676;51.360;12.354;2023-05-10T07:19:24;4.88;;;1.75;;
38909;SDS011;24676;51.360;12.354;2023-05-10T07:22:09;1.73;;;1.45;;
38909;SDS011;24676;51.360;12.354;2023-05-10T07:24:53;4.15;;;1.35;;
38909;SDS011;24676;51.360;12.354;2023-05-10T07:27:37;3.15;;;1.58;;
38909;SDS011;24676;51.360;12.354;2023-05-10T07:30:22;1.30;;;1.20;;
38909;SDS011;24676;51.360;12.354;2023-05-10T07:33:07;1.67;;;1.52;;
38909;SDS011;24676;51.360;12.354;2023-05-10T07:35:52;2.30;;;1.60;;
38909;SDS011;24676;51.360;12.354;2023-05-10T07:38:37;2.65;;;1.05;;
38909;SDS011;24676;51.360;12.354;2023-05-10T07:41:21;9.20;;;1.10;;
38909;SDS011;24676;51.360;12.354;2023-05-10T07:44:06;1.40;;;1.17;;
38909;SDS011;24676;51.360;12.354;2023-05-10T07:46:50;1.92;;;1.67;;
38909;SDS011;24676;51.360;12.354;2023-05-10T07:49:34;6.60;;;2.55;;
38909;SDS011;24676;51.360;12.354;2023-05-10T07:52:19;3.97;;;1.08;;
38909;SDS011;24676;51.360;12.354;2023-05-10T07:55:03;1.50;;;1.30;;
38909;SDS011;24676;51.360;12.354;2023-05-10T07:57:48;2.13;;;1.63;;
38909;SDS011;24676;51.360;12.354;2023-05-10T08:00:32;0.57;;;0.57;;
38909;SDS011;24676;51.360;12.354;2023-05-10T08:03:17;1.65;;;1.55;;
38909;SDS011;24676;51.360;12.354;2023-05-10T08:06:01;2.65;;;1.73;;
38909;SDS011;24676;51.360;12.354;2023-05-10T08:08:45;1.33;;;1.23;;
38909;SDS011;24676;51.360;12.354;2023-05-10T08:11:33;1.25;;;1.20;;
38909;SDS011;24676;51.360;12.354;2023-05-10T08:14:17;1.25;;;1.15;;
38909;SDS011;24676;51.360;12.354;2023-05-10T08:17:02;1.20;;;1.10;;
38909;SDS011;24676;51.360;12.354;2023-05-10T08:19:47;8.13;;;2.47;;
38909;SDS011;24676;51.360;12.354;2023-05-10T08:22:31;2.88;;;1.60;;
38909;SDS011;24676;51.360;12.354;2023-05-10T08:25:16;1.30;;;1.20;;
38909;SDS011;24676;51.360;12.354;2023-05-10T08:28:00;1.70;;;1.27;;
38909;SDS011;24676;51.360;12.354;2023-05-10T08:30:44;1.55;;;1.33;;
38909;SDS011;24676;51.360;12.354;2023-05-10T08:33:28;3.03;;;1.30;;
38909;SDS011;24676;51.360;12.354;2023-05-10T08:36:12;2.50;;;1.85;;
38909;SDS011;24676;51.360;12.354;2023-05-10T08:38:57;1.83;;;1.65;;
38909;SDS011;24676;51.360;12.354;2023-05-10T08:41:43;2.13;;;1.40;;
38909;SDS011;24676;51.360;12.354;2023-05-10T08:44:28;2.20;;;1.80;;
38909;SDS011;24676;51.360;12.354;2023-05-10T08:47:16;2.40;;;1.73;;
38909;SDS011;24676;51.360;12.354;2023-05-10T08:50:02;2.47;;;1.75;;
38909;SDS011;24676;51.360;12.354;2023-05-10T08:52:47;1.10;;;1.10;;
38909;SDS011;24676;51.360;12.354;2023-05-10T08:55:34;2.85;;;1.90;;
38909;SDS011;24676;51.360;12.354;2023-05-10T08:58:21;2.20;;;2.00;;
38909;SDS011;24676;51.360;12.354;2023-05-10T09:01:05;1.08;;;0.98;;
38909;SDS011;24676;51.360;12.354;2023-05-10T09:03:50;1.92;;;1.83;;
38909;SDS011;24676;51.360;12.354;2023-05-10T09:06:34;4.05;;;2.03;;
38909;SDS011;24676;51.360;12.354;2023-05-10T09:09:19;1.88;;;1.75;;
38909;SDS011;24676;51.360;12.354;2023-05-10T09:12:05;3.03;;;1.60;;
38909;SDS011;24676;51.360;12.354;2023-05-10T09:14:50;2.00;;;1.63;;
38909;SDS011;24676;51.360;12.354;2023-05-10T09:17:35;2.30;;;2.10;;
38909;SDS011;24676;51.360;12.354;2023-05-10T09:20:21;2.65;;;2.00;;
38909;SDS011;24676;51.360;12.354;2023-05-10T09:23:06;4.65;;;2.50;;
38909;SDS011;24676;51.360;12.354;2023-05-10T09:26:01;3.80;;;2.45;;
38909;SDS011;24676;51.360;12.354;2023-05-10T09:28:55;2.33;;;2.10;;
38909;SDS011;24676;51.360;12.354;2023-05-10T09:31:47;6.28;;;2.58;;
38909;SDS011;24676;51.360;12.354;2023-05-10T09:34:38;2.45;;;2.10;;
38909;SDS011;24676;51.360;12.354;2023-05-10T09:37:30;5.65;;;2.40;;
38909;SDS011;24676;51.360;12.354;2023-05-10T09:40:16;4.15;;;2.25;;
38909;SDS011;24676;51.360;12.354;2023-05-10T09:43:08;3.72;;;3.00;;
38909;SDS011;24676;51.360;12.354;2023-05-10T09:48:42;3.47;;;2.53;;
38909;SDS011;24676;51.360;12.354;2023-05-10T09:51:31;7.18;;;2.83;;
38909;SDS011;24676;51.360;12.354;2023-05-10T09:54:16;4.50;;;3.83;;
38909;SDS011;24676;51.360;12.354;2023-05-10T09:57:00;4.20;;;2.85;;
38909;SDS011;24676;51.360;12.354;2023-05-10T09:59:44;9.55;;;3.08;;
38909;SDS011;24676;51.360;12.354;2023-05-10T10:02:29;4.82;;;3.25;;
38909;SDS011;24676;51.360;12.354;2023-05-10T10:05:16;6.00;;;3.78;;
38909;SDS011;24676;51.360;12.354;2023-05-10T10:08:04;6.82;;;3.25;;
38909;SDS011;24676;51.360;12.354;2023-05-10T10:10:49;5.53;;;2.92;;
38909;SDS011;24676;51.360;12.354;2023-05-10T10:13:34;5.28;;;3.38;;
38909;SDS011;24676;51.360;12.354;2023-05-10T10:16:18;3.65;;;3.00;;
38909;SDS011;24676;51.360;12.354;2023-05-10T10:19:03;4.15;;;3.10;;
38909;SDS011;24676;51.360;12.354;2023-05-10T10:21:48;3.75;;;2.92;;
38909;SDS011;24676;51.360;12.354;2023-05-10T10:24:33;4.00;;;3.25;;
38909;SDS011;24676;51.360;12.354;2023-05-10T10:30:48;5.32;;;3.25;;
38909;SDS011;24676;51.360;12.354;2023-05-10T10:36:24;9.98;;;3.60;;
38909;SDS011;24676;51.360;12.354;2023-05-10T10:39:10;3.90;;;2.92;;
38909;SDS011;24676;51.360;12.354;2023-05-10T10:41:56;3.03;;;2.63;;
38909;SDS011;24676;51.360;12.354;2023-05-10T10:44:41;4.35;;;3.28;;
38909;SDS011;24676;51.360;12.354;2023-05-10T10:47:27;2.55;;;2.35;;
38909;SDS011;24676;51.360;12.354;2023-05-10T10:50:14;4.78;;;3.20;;
38909;SDS011;24676;51.360;12.354;2023-05-10T10:53:01;4.50;;;2.97;;
38909;SDS011;24676;51.360;12.354;2023-05-10T10:56:10;6.38;;;2.63;;
38909;SDS011;24676;51.360;12.354;2023-05-10T10:58:58;7.97;;;3.75;;
38909;SDS011;24676;51.360;12.354;2023-05-10T11:01:43;4.07;;;2.45;;
38909;SDS011;24676;51.360;12.354;2023-05-10T11:04:28;4.32;;;3.08;;
38909;SDS011;24676;51.360;12.354;2023-05-10T11:07:15;5.15;;;3.53;;
38909;SDS011;24676;51.360;12.354;2023-05-10T11:10:04;6.47;;;3.28;;
38909;SDS011;24676;51.360;12.354;2023-05-10T11:15:50;7.28;;;4.05;;
38909;SDS011;24676;51.360;12.354;2023-05-10T11:18:36;5.25;;;4.00;;
38909;SDS011;24676;51.360;12.354;2023-05-10T11:21:21;5.00;;;3.65;;
38909;SDS011;24676;51.360;12.354;2023-05-10T11:24:09;5.82;;;4.30;;
38909;SDS011;24676;51.360;12.354;2023-05-10T11:26:57;4.45;;;3.85;;
38909;SDS011;24676;51.360;12.354;2023-05-10T11:29:42;11.40;;;5.90;;
38909;SDS011;24676;51.360;12.354;2023-05-10T11:32:27;5.25;;;3.65;;
38909;SDS011;24676;51.360;12.354;2023-05-10T11:35:11;4.05;;;3.47;;
38909;SDS011;24676;51.360;12.354;2023-05-10T11:37:55;4.63;;;3.60;;
38909;SDS011;24676;51.360;12.354;2023-05-10T11:40:40;6.00;;;3.47;;
38909;SDS011;24676;51.360;12.354;2023-05-10T11:43:25;5.88;;;3.97;;
38909;SDS011;24676;51.360;12.354;2023-05-10T11:46:13;6.43;;;5.10;;
38909;SDS011;24676;51.360;12.354;2023-05-10T11:48:59;5.03;;;4.38;;
38909;SDS011;24676;51.360;12.354;2023-05-10T11:51:45;5.88;;;3.97;;
38909;SDS011;24676;51.360;12.354;2023-05-10T11:54:29;9.63;;;4.47;;
38909;SDS011;24676;51.360;12.354;2023-05-10T11:57:14;6.28;;;4.65;;
38909;SDS011;24676;51.360;12.354;2023-05-10T11:59:59;10.32;;;5.45;;
38909;SDS011;24676;51.360;12.354;2023-05-10T12:02:43;5.20;;;3.72;;
38909;SDS011;24676;51.360;12.354;2023-05-10T12:05:28;5.43;;;3.55;;
38909;SDS011;24676;51.360;12.354;2023-05-10T12:11:06;12.57;;;5.70;;
38909;SDS011;24676;51.360;12.354;2023-05-10T12:13:51;7.18;;;4.03;;
38909;SDS011;24676;51.360;12.354;2023-05-10T12:16:36;9.93;;;5.13;;
38909;SDS011;24676;51.360;12.354;2023-05-10T12:19:21;6.13;;;4.88;;
38909;SDS011;24676;51.360;12.354;2023-05-10T12:22:05;7.28;;;5.45;;
38909;SDS011;24676;51.360;12.354;2023-05-10T12:24:49;4.53;;;3.88;;
38909;SDS011;24676;51.360;12.354;2023-05-10T12:27:34;7.35;;;4.07;;
38909;SDS011;24676;51.360;12.354;2023-05-10T12:30:19;6.53;;;4.53;;
38909;SDS011;24676;51.360;12.354;2023-05-10T12:33:12;6.53;;;3.63;;
38909;SDS011;24676;51.360;12.354;2023-05-10T12:35:58;6.85;;;4.65;;
38909;SDS011;24676;51.360;12.354;2023-05-10T12:38:44;11.68;;;4.00;;
38909;SDS011;24676;51.360;12.354;2023-05-10T12:41:31;8.05;;;3.90;;
38909;SDS011;24676;51.360;12.354;2023-05-10T12:44:15;4.82;;;3.97;;
38909;SDS011;24676;51.360;12.354;2023-05-10T12:46:59;4.18;;;3.80;;
38909;SDS011;24676;51.360;12.354;2023-05-10T12:49:43;7.60;;;4.00;;
38909;SDS011;24676;51.360;12.354;2023-05-10T12:52:28;4.30;;;3.85;;
38909;SDS011;24676;51.360;12.354;2023-05-10T12:55:13;6.25;;;3.97;;
38909;SDS011;24676;51.360;12.354;2023-05-10T12:57:57;5.65;;;3.67;;
38909;SDS011;24676;51.360;12.354;2023-05-10T13:00:41;7.13;;;3.97;;
38909;SDS011;24676;51.360;12.354;2023-05-10T13:03:27;4.65;;;2.95;;
38909;SDS011;24676;51.360;12.354;2023-05-10T13:06:12;7.05;;;4.53;;
38909;SDS011;24676;51.360;12.354;2023-05-10T13:08:57;6.53;;;4.15;;
38909;SDS011;24676;51.360;12.354;2023-05-10T13:11:41;7.47;;;4.05;;
38909;SDS011;24676;51.360;12.354;2023-05-10T13:14:25;5.13;;;3.85;;
38909;SDS011;24676;51.360;12.354;2023-05-10T13:17:10;4.60;;;3.80;;
38909;SDS011;24676;51.360;12.354;2023-05-10T13:19:57;6.18;;;3.45;;
38909;SDS011;24676;51.360;12.354;2023-05-10T13:22:45;5.10;;;3.92;;
38909;SDS011;24676;51.360;12.354;2023-05-10T13:25:29;4.43;;;3.30;;
38909;SDS011;24676;51.360;12.354;2023-05-10T13:28:13;6.05;;;3.78;;
38909;SDS011;24676;51.360;12.354;2023-05-10T13:30:58;4.22;;;2.58;;
38909;SDS011;24676;51.360;12.354;2023-05-10T13:33:43;3.05;;;2.75;;
38909;SDS011;24676;51.360;12.354;2023-05-10T13:36:28;3.88;;;3.00;;
38909;SDS011;24676;51.360;12.354;2023-05-10T13:39:12;4.20;;;2.97;;
38909;SDS011;24676;51.360;12.354;2023-05-10T13:41:57;2.90;;;2.08;;
38909;SDS011;24676;51.360;12.354;2023-05-10T13:44:41;3.15;;;2.85;;
38909;SDS011;24676;51.360;12.354;2023-05-10T13:47:25;4.32;;;3.13;;
38909;SDS011;24676;51.360;12.354;2023-05-10T13:50:10;3.85;;;3.45;;
38909;SDS011;24676;51.360;12.354;2023-05-10T13:52:54;5.05;;;2.75;;
38909;SDS011;24676;51.360;12.354;2023-05-10T13:55:39;3.83;;;2.85;;
38909;SDS011;24676;51.360;12.354;2023-05-10T13:58:23;4.75;;;4.25;;
38909;SDS011;24676;51.360;12.354;2023-05-10T14:01:08;4.45;;;3.90;;
38909;SDS011;24676;51.360;12.354;2023-05-10T14:03:52;4.35;;;3.15;;
38909;SDS011;24676;51.360;12.354;2023-05-10T14:06:36;3.05;;;2.85;;
38909;SDS011;24676;51.360;12.354;2023-05-10T14:09:20;5.00;;;3.47;;
38909;SDS011;24676;51.360;12.354;2023-05-10T14:12:04;3.47;;;2.67;;
38909;SDS011;24676;51.360;12.354;2023-05-10T14:14:49;1.63;;;1.35;;
38909;SDS011;24676;51.360;12.354;2023-05-10T14:17:33;2.10;;;1.90;;
38909;SDS011;24676;51.360;12.354;2023-05-10T14:20:17;1.25;;;0.50;;
38909;SDS011;24676;51.360;12.354;2023-05-10T14:23:01;0.45;;;0.40;;
38909;SDS011;24676;51.360;12.354;2023-05-10T14:25:45;0.77;;;0.77;;
38909;SDS011;24676;51.360;12.354;2023-05-10T14:28:30;0.70;;;0.60;;
38909;SDS011;24676;51.360;12.354;2023-05-10T14:31:14;0.73;;;0.52;;
38909;SDS011;24676;51.360;12.354;2023-05-10T14:34:00;1.35;;;0.68;;
38909;SDS011;24676;51.360;12.354;2023-05-10T14:36:44;0.65;;;0.40;;
38909;SDS011;24676;51.360;12.354;2023-05-10T14:39:28;1.40;;;0.28;;
38909;SDS011;24676;51.360;12.354;2023-05-10T14:42:13;0.95;;;0.85;;
38909;SDS011;24676;51.360;12.354;2023-05-10T14:44:58;0.50;;;0.50;;
38909;SDS011;24676;51.360;12.354;2023-05-10T14:47:42;0.50;;;0.50;;
38909;SDS011;24676;51.360;12.354;2023-05-10T14:50:26;1.58;;;0.98;;
38909;SDS011;24676;51.360;12.354;2023-05-10T14:53:11;0.50;;;0.50;;
38909;SDS011;24676;51.360;12.354;2023-05-10T14:55:54;0.90;;;0.77;;
38909;SDS011;24676;51.360;12.354;2023-05-10T14:58:39;0.85;;;0.85;;
38909;SDS011;24676;51.360;12.354;2023-05-10T15:01:23;1.63;;;1.52;;
38909;SDS011;24676;51.360;12.354;2023-05-10T15:04:08;1.20;;;1.10;;
38909;SDS011;24676;51.360;12.354;2023-05-10T15:06:52;2.22;;;1.10;;
38909;SDS011;24676;51.360;12.354;2023-05-10T15:09:42;4.47;;;1.45;;
38909;SDS011;24676;51.360;12.354;2023-05-10T15:12:26;3.33;;;1.67;;
38909;SDS011;24676;51.360;12.354;2023-05-10T15:15:11;1.30;;;1.25;;
38909;SDS011;24676;51.360;12.354;2023-05-10T15:17:55;1.20;;;0.80;;
38909;SDS011;24676;51.360;12.354;2023-05-10T15:20:40;2.10;;;1.17;;
38909;SDS011;24676;51.360;12.354;2023-05-10T15:23:24;1.23;;;0.82;;
38909;SDS011;24676;51.360;12.354;2023-05-10T15:26:09;1.15;;;0.98;;
38909;SDS011;24676;51.360;12.354;2023-05-10T15:28:53;1.20;;;0.47;;
38909;SDS011;24676;51.360;12.354;2023-05-10T15:31:37;0.30;;;0.30;;
38909;SDS011;24676;51.360;12.354;2023-05-10T15:34:23;0.40;;;0.40;;
38909;SDS011;24676;51.360;12.354;2023-05-10T15:37:07;0.95;;;0.22;;
38909;SDS011;24676;51.360;12.354;2023-05-10T15:39:52;0.60;;;0.60;;
38909;SDS011;24676;51.360;12.354;2023-05-10T15:42:36;1.02;;;0.60;;
38909;SDS011;24676;51.360;12.354;2023-05-10T15:45:20;1.13;;;1.02;;
38909;SDS011;24676;51.360;12.354;2023-05-10T15:48:05;0.30;;;0.17;;
38909;SDS011;24676;51.360;12.354;2023-05-10T15:50:49;0.65;;;0.35;;
38909;SDS011;24676;51.360;12.354;2023-05-10T15:53:34;0.60;;;0.50;;
38909;SDS011;24676;51.360;12.354;2023-05-10T15:56:18;2.72;;;0.80;;
38909;SDS011;24676;51.360;12.354;2023-05-10T15:59:03;0.22;;;0.20;;
38909;SDS011;24676;51.360;12.354;2023-05-10T16:01:48;0.43;;;0.35;;
38909;SDS011;24676;51.360;12.354;2023-05-10T16:04:33;0.45;;;0.30;;
38909;SDS011;24676;51.360;12.354;2023-05-10T16:07:17;2.95;;;1.17;;
38909;SDS011;24676;51.360;12.354;2023-05-10T16:10:01;0.65;;;0.65;;
38909;SDS011;24676;51.360;12.354;2023-05-10T16:12:48;0.52;;;0.20;;
38909;SDS011;24676;51.360;12.354;2023-05-10T16:15:33;0.25;;;0.25;;
38909;SDS011;24676;51.360;12.354;2023-05-10T16:18:17;0.20;;;0.20;;
38909;SDS011;24676;51.360;12.354;2023-05-10T16:21:01;0.40;;;0.40;;
38909;SDS011;24676;51.360;12.354;2023-05-10T16:23:46;0.65;;;0.35;;
38909;SDS011;24676;51.360;12.354;2023-05-10T16:26:30;0.22;;;0.22;;
38909;SDS011;24676;51.360;12.354;2023-05-10T16:29:15;0.40;;;0.40;;
38909;SDS011;24676;51.360;12.354;2023-05-10T16:31:59;0.38;;;0.38;;
38909;SDS011;24676;51.360;12.354;2023-05-10T16:34:44;0.52;;;0.52;;
38909;SDS011;24676;51.360;12.354;2023-05-10T16:37:28;0.98;;;0.98;;
38909;SDS011;24676;51.360;12.354;2023-05-10T16:40:12;4.88;;;1.48;;
38909;SDS011;24676;51.360;12.354;2023-05-10T16:42:57;2.60;;;1.40;;
38909;SDS011;24676;51.360;12.354;2023-05-10T16:45:41;1.40;;;0.93;;
38909;SDS011;24676;51.360;12.354;2023-05-10T16:48:25;1.65;;;0.65;;
38909;SDS011;24676;51.360;12.354;2023-05-10T16:51:10;0.40;;;0.40;;
38909;SDS011;24676;51.360;12.354;2023-05-10T16:53:55;2.55;;;0.55;;
38909;SDS011;24676;51.360;12.354;2023-05-10T16:56:39;0.38;;;0.20;;
38909;SDS011;24676;51.360;12.354;2023-05-10T16:59:23;0.30;;;0.30;;